Tumwater, Washington
Current Conditions -  °F | °C
As of 3:54 PM on Friday 19 Dec 2014 (Local Time) from KOLM Reporting Station
Light Rain Light Rain  
Wind Chill: 42°   Ceiling: 4500
Heat Index: 47°   Visibility: 10mi
Dew Point: 41°   Wind: 10mph
Humidity: 80%   Direction: 190°S
Pressure: 29.95"   Gusts: NA
Location:  47.038°N, 122.899°W
Report Text: KOLM 192354Z 19009KT 10SM -RA FEW019 BKN045 BKN080 08/05 A2995 RMK AO2 RAB12E20B40 SLP144 P0000 60000 T00830050 10106 20083 55000
Loading
Personal Weather Stations






























Interactive Weather Map New forecast layout! Learn more

10-Day Weather Forecast

Advertisements
Track Severe Weather on mobile